Time;durP1;ratioP1;P1;durP2;ratioP2;P2;SDS_P1;SDS_P2;PMS_P1;PMS_P2;Temp;Humidity;BMP_temperature;BMP_pressure;BME280_temperature;BME280_humidity;BME280_pressure;Samples;Min_cycle;Max_cycle;Signal;HPM_P1;HPM_P2
2022/06/17 00:00:54;;;;;;;13.63;12.30;;;13.60;99.90;;;;;;5055805;28;20464;-67
2022/06/17 00:03:22;;;;;;;13.47;12.57;;;13.60;99.90;;;;;;5055300;28;20490;-67
2022/06/17 00:05:51;;;;;;;12.43;11.40;;;13.60;99.90;;;;;;5051738;28;20924;-66
2022/06/17 00:08:21;;;;;;;12.80;11.70;;;13.60;99.90;;;;;;5057602;28;20455;-66
2022/06/17 00:10:48;;;;;;;13.63;12.43;;;13.50;99.90;;;;;;5057702;28;20463;-66
2022/06/17 00:13:20;;;;;;;13.13;12.33;;;13.50;99.90;;;;;;5054656;28;20989;-67
2022/06/17 00:15:48;;;;;;;12.10;11.30;;;13.60;99.90;;;;;;5056352;28;20480;-67
2022/06/17 00:18:16;;;;;;;11.60;10.80;;;13.50;99.90;;;;;;5065580;28;20619;-67
2022/06/17 00:20:44;;;;;;;12.60;11.77;;;13.50;99.90;;;;;;5059949;28;20562;-66
2022/06/17 00:23:14;;;;;;;13.07;12.10;;;13.40;99.90;;;;;;5059530;28;20481;-66
2022/06/17 00:25:43;;;;;;;13.80;12.80;;;13.40;99.90;;;;;;5059799;28;20510;-66
2022/06/17 00:28:13;;;;;;;13.80;12.90;;;13.30;99.90;;;;;;5055730;28;20474;-66
2022/06/17 00:30:40;;;;;;;13.77;12.77;;;13.20;99.90;;;;;;5054844;28;21038;-66
2022/06/17 00:33:10;;;;;;;13.30;12.40;;;13.20;99.90;;;;;;5056794;28;20494;-67
2022/06/17 00:35:38;;;;;;;13.03;12.23;;;13.20;99.90;;;;;;5058346;28;20970;-66
2022/06/17 00:38:06;;;;;;;13.90;12.60;;;13.20;99.90;;;;;;5057940;28;20828;-67
2022/06/17 00:40:36;;;;;;;12.50;11.70;;;13.20;99.90;;;;;;5059813;28;20460;-66
2022/06/17 00:43:07;;;;;;;13.37;12.50;;;13.20;99.90;;;;;;5061715;28;20483;-66
2022/06/17 00:45:40;;;;;;;13.90;13.00;;;13.20;99.90;;;;;;5060457;28;20447;-67
2022/06/17 00:48:13;;;;;;;16.67;13.10;;;13.20;99.90;;;;;;5062516;28;20964;-66
2022/06/17 00:50:47;;;;;;;13.33;11.63;;;13.20;99.90;;;;;;5053872;28;20470;-66
2022/06/17 00:53:18;;;;;;;13.87;12.70;;;13.30;99.90;;;;;;5060352;28;20494;-66
2022/06/17 00:55:51;;;;;;;13.40;12.60;;;13.30;99.90;;;;;;5056417;28;20468;-67
2022/06/17 00:58:21;;;;;;;14.23;13.03;;;13.40;99.90;;;;;;5054101;28;20455;-66
2022/06/17 01:00:52;;;;;;;14.47;13.27;;;13.40;99.90;;;;;;5055585;28;20464;-66
2022/06/17 01:03:22;;;;;;;14.30;13.40;;;13.40;99.90;;;;;;5055709;28;20464;-66
2022/06/17 01:05:53;;;;;;;13.40;12.30;;;13.40;99.90;;;;;;5055688;28;20471;-66
2022/06/17 01:11:15;;;;;;;13.50;12.50;;;13.30;99.90;;;;;;5059552;28;20459;-66
2022/06/17 01:13:46;;;;;;;14.53;13.23;;;13.30;99.90;;;;;;5053591;28;20485;-66
2022/06/17 01:16:13;;;;;;;13.23;12.23;;;13.30;99.90;;;;;;5055764;28;20470;-66
2022/06/17 01:18:44;;;;;;;13.70;12.60;;;13.30;99.90;;;;;;5052519;28;20485;-66
2022/06/17 01:21:26;;;;;;;14.00;12.90;;;13.30;99.90;;;;;;5057407;28;20999;-66
2022/06/17 01:23:55;;;;;;;13.07;12.03;;;13.40;99.90;;;;;;5057184;28;20475;-66
2022/06/17 01:26:22;;;;;;;12.23;11.33;;;13.40;99.90;;;;;;5056116;28;21372;-66
2022/06/17 01:28:49;;;;;;;13.10;12.10;;;13.40;99.90;;;;;;5053001;28;20532;-66
2022/06/17 01:31:17;;;;;;;13.30;12.10;;;13.40;99.90;;;;;;5053767;28;20472;-66
2022/06/17 01:33:45;;;;;;;13.27;12.40;;;13.40;99.90;;;;;;5053559;28;20491;-67
2022/06/17 01:36:16;;;;;;;13.67;12.00;;;13.40;99.90;;;;;;5060101;28;20464;-66
2022/06/17 01:38:46;;;;;;;13.60;12.70;;;13.40;99.90;;;;;;5050930;28;20464;-66
2022/06/17 01:41:15;;;;;;;13.37;12.40;;;13.40;99.90;;;;;;5053398;28;20468;-67
2022/06/17 01:43:47;;;;;;;14.27;13.27;;;13.20;99.90;;;;;;5061498;28;21031;-66
2022/06/17 01:46:19;;;;;;;14.07;12.83;;;13.20;99.90;;;;;;5056137;28;20475;-66
2022/06/17 01:48:51;;;;;;;13.87;12.90;;;13.20;99.90;;;;;;5057383;28;20471;-67
2022/06/17 01:51:21;;;;;;;14.30;13.30;;;13.20;99.90;;;;;;5054724;28;20837;-66
2022/06/17 01:53:51;;;;;;;15.97;14.93;;;13.30;99.90;;;;;;5057878;28;20502;-67
2022/06/17 01:56:23;;;;;;;15.30;14.10;;;13.30;99.90;;;;;;5051120;28;20483;-66
2022/06/17 01:58:55;;;;;;;15.87;14.57;;;13.20;99.90;;;;;;5055926;28;20789;-66
2022/06/17 02:01:23;;;;;;;15.40;14.20;;;13.10;99.90;;;;;;5059703;28;20459;-66
2022/06/17 02:03:55;;;;;;;14.50;13.37;;;13.00;99.90;;;;;;5059063;28;20455;-67
2022/06/17 02:06:29;;;;;;;14.47;13.47;;;12.90;99.90;;;;;;5053973;28;20966;-66
2022/06/17 02:08:57;;;;;;;22.37;14.30;;;12.90;99.90;;;;;;5051850;28;20475;-67
2022/06/17 02:11:25;;;;;;;15.53;14.27;;;12.90;99.90;;;;;;5062219;28;20973;-66
2022/06/17 02:13:53;;;;;;;15.43;14.07;;;12.80;99.90;;;;;;5063081;28;20571;-66
2022/06/17 02:16:21;;;;;;;15.70;14.30;;;12.80;99.90;;;;;;5054185;28;20466;-66
2022/06/17 02:18:49;;;;;;;16.87;15.23;;;12.70;99.90;;;;;;5057622;28;20553;-67
2022/06/17 02:21:26;;;;;;;16.47;14.97;;;12.60;99.90;;;;;;5057803;28;20464;-66
2022/06/17 02:23:54;;;;;;;15.50;14.33;;;12.50;99.90;;;;;;5056375;28;20949;-67
2022/06/17 02:26:22;;;;;;;15.40;14.40;;;12.50;99.90;;;;;;5062050;28;20854;-66
2022/06/17 02:28:52;;;;;;;16.67;15.37;;;12.40;99.90;;;;;;5061022;28;20455;-66
2022/06/17 02:31:20;;;;;;;15.73;14.30;;;12.30;99.90;;;;;;5058484;28;20464;-66
2022/06/17 02:33:51;;;;;;;14.83;13.83;;;12.30;99.90;;;;;;5049283;28;21003;-66
2022/06/17 02:36:26;;;;;;;15.03;14.03;;;12.30;99.90;;;;;;5055558;28;20459;-66
2022/06/17 02:38:53;;;;;;;15.67;14.60;;;12.30;99.90;;;;;;5053320;28;20680;-66
2022/06/17 02:41:21;;;;;;;15.10;14.00;;;12.30;99.90;;;;;;5054672;28;20463;-66
2022/06/17 02:43:58;;;;;;;16.37;15.37;;;12.30;99.90;;;;;;5054896;28;20456;-66
2022/06/17 02:46:30;;;;;;;16.47;15.10;;;12.30;99.90;;;;;;5053293;28;20757;-66
2022/06/17 02:49:00;;;;;;;16.70;15.23;;;12.30;99.90;;;;;;5063355;28;20463;-65
2022/06/17 02:51:29;;;;;;;15.10;14.00;;;12.30;99.90;;;;;;5052097;28;20463;-66
2022/06/17 02:53:58;;;;;;;16.80;15.07;;;12.30;99.90;;;;;;5056202;28;20490;-66
2022/06/17 02:56:29;;;;;;;16.83;15.53;;;12.30;99.90;;;;;;5047913;28;20456;-67
2022/06/17 02:59:06;;;;;;;16.10;15.10;;;12.20;99.90;;;;;;5059652;28;20493;-66
2022/06/17 03:01:35;;;;;;;17.57;16.10;;;12.30;99.90;;;;;;5057925;28;20463;-66
2022/06/17 03:04:07;;;;;;;17.33;15.87;;;12.30;99.90;;;;;;5056304;28;20987;-66
2022/06/17 03:06:36;;;;;;;15.83;14.87;;;12.30;99.90;;;;;;5048601;28;20468;-67
2022/06/17 03:09:18;;;;;;;16.00;14.90;;;12.30;99.90;;;;;;5054976;28;20495;-66
2022/06/17 03:11:47;;;;;;;16.57;15.50;;;12.30;99.90;;;;;;5055075;28;20463;-67
2022/06/17 03:14:17;;;;;;;17.17;15.97;;;12.30;99.90;;;;;;5059624;28;20491;-66
2022/06/17 03:16:44;;;;;;;21.03;19.10;;;12.20;99.90;;;;;;5057663;28;20970;-67
2022/06/17 03:19:12;;;;;;;18.40;17.20;;;12.30;99.90;;;;;;5057889;28;20476;-66
2022/06/17 03:21:39;;;;;;;19.03;17.63;;;12.20;99.90;;;;;;5054732;28;20466;-66
2022/06/17 03:24:13;;;;;;;18.90;17.60;;;12.10;99.90;;;;;;5056575;28;20463;-66
2022/06/17 03:26:45;;;;;;;22.70;20.43;;;12.00;99.90;;;;;;5053867;28;20827;-66
2022/06/17 03:29:17;;;;;;;23.37;21.33;;;11.90;99.90;;;;;;5053133;28;20957;-66
2022/06/17 03:31:48;;;;;;;21.30;19.43;;;11.90;99.90;;;;;;5049501;28;20471;-65
2022/06/17 03:34:19;;;;;;;20.70;19.20;;;11.90;99.90;;;;;;5048380;28;20506;-66
2022/06/17 03:36:51;;;;;;;21.67;20.07;;;11.90;99.90;;;;;;5055451;28;20452;-65
2022/06/17 03:39:23;;;;;;;21.57;19.97;;;11.90;99.90;;;;;;5051671;28;20814;-67
2022/06/17 03:41:54;;;;;;;23.40;21.47;;;11.90;99.90;;;;;;5055887;28;20464;-66
2022/06/17 03:44:29;;;;;;;21.33;19.57;;;11.90;99.90;;;;;;5062441;28;20458;-66
2022/06/17 03:47:00;;;;;;;21.50;19.80;;;12.00;99.90;;;;;;5061673;28;20826;-66
2022/06/17 03:49:34;;;;;;;20.83;19.33;;;12.00;99.90;;;;;;5064870;28;20473;-66
2022/06/17 03:52:06;;;;;;;25.73;20.20;;;12.00;99.90;;;;;;5052090;28;20529;-66
2022/06/17 03:54:33;;;;;;;22.00;20.20;;;12.10;99.90;;;;;;5056953;28;20498;-66
2022/06/17 03:57:01;;;;;;;20.60;18.97;;;12.10;99.90;;;;;;5058394;28;20802;-66
2022/06/17 03:59:33;;;;;;;21.03;19.07;;;12.20;99.90;;;;;;5058942;28;20463;-67
2022/06/17 04:02:05;;;;;;;21.47;19.73;;;12.30;99.90;;;;;;5046951;28;20471;-67
2022/06/17 04:04:37;;;;;;;20.90;19.20;;;12.30;99.90;;;;;;5050417;28;20455;-66
2022/06/17 04:07:05;;;;;;;20.63;18.93;;;12.30;99.90;;;;;;5061406;28;20455;-66
2022/06/17 04:09:37;;;;;;;20.27;18.47;;;12.30;99.90;;;;;;5034827;28;21158;-66
2022/06/17 04:12:19;;;;;;;20.40;18.70;;;12.40;99.90;;;;;;5032834;28;20460;-66
2022/06/17 04:14:53;;;;;;;21.27;19.50;;;12.40;99.90;;;;;;5031160;28;20540;-67
2022/06/17 04:17:26;;;;;;;20.03;18.00;;;12.50;99.90;;;;;;5031898;28;20458;-67
2022/06/17 04:20:02;;;;;;;21.03;19.07;;;12.40;99.90;;;;;;5031244;28;20740;-66
2022/06/17 04:22:35;;;;;;;21.60;19.80;;;12.50;99.90;;;;;;5031702;28;20462;-67
2022/06/17 04:25:05;;;;;;;18.00;16.73;;;12.60;99.90;;;;;;5031448;28;20966;-66
2022/06/17 04:30:20;;;;;;;19.37;17.60;;;12.70;99.90;;;;;;5029592;28;20459;-65
2022/06/17 04:32:50;;;;;;;20.43;17.13;;;12.70;99.90;;;;;;5031201;28;20467;-66
2022/06/17 04:35:17;;;;;;;18.07;16.13;;;12.80;99.90;;;;;;5030993;28;20510;-67
2022/06/17 04:37:46;;;;;;;29.10;17.10;;;12.90;99.90;;;;;;5030782;28;21082;-67
2022/06/17 04:40:21;;;;;;;29.20;17.00;;;12.90;99.90;;;;;;5030266;28;20628;-67
2022/06/17 04:42:48;;;;;;;23.00;17.30;;;13.00;99.90;;;;;;5032108;28;21143;-66
2022/06/17 04:45:21;;;;;;;25.70;16.17;;;13.20;99.90;;;;;;5031278;28;20532;-66
2022/06/17 04:47:48;;;;;;;17.67;14.80;;;13.30;99.90;;;;;;5031073;28;20470;-66
2022/06/17 04:50:18;;;;;;;19.43;14.67;;;13.60;99.90;;;;;;5031919;28;20471;-67
2022/06/17 04:52:48;;;;;;;20.30;15.33;;;13.90;99.90;;;;;;5031874;28;20467;-66
2022/06/17 04:55:18;;;;;;;15.90;14.27;;;14.10;99.90;;;;;;5031847;28;20487;-68
2022/06/17 04:57:45;;;;;;;28.23;14.20;;;14.40;99.90;;;;;;5031184;28;20509;-65
2022/06/17 05:00:19;;;;;;;17.93;14.87;;;14.70;99.90;;;;;;5030804;28;20507;-66
2022/06/17 05:02:46;;;;;;;19.83;14.27;;;15.00;99.90;;;;;;5029937;28;20459;-66
2022/06/17 05:05:16;;;;;;;22.80;15.17;;;15.20;99.90;;;;;;5029632;28;20484;-66
2022/06/17 05:07:47;;;;;;;14.93;12.80;;;15.40;99.90;;;;;;5030115;28;20471;-67
2022/06/17 05:10:19;;;;;;;22.33;14.20;;;15.50;99.90;;;;;;5030676;28;21002;-68
2022/06/17 05:12:49;;;;;;;24.00;14.03;;;15.60;99.90;;;;;;5030777;28;20462;-66
2022/06/17 05:15:20;;;;;;;49.03;15.33;;;15.80;99.90;;;;;;5030993;28;20533;-67
2022/06/17 05:17:47;;;;;;;39.87;14.83;;;15.90;99.90;;;;;;5030148;28;20981;-66
2022/06/17 05:20:16;;;;;;;26.90;15.83;;;16.10;99.90;;;;;;5028920;28;21015;-66
2022/06/17 05:22:47;;;;;;;36.67;16.10;;;16.20;99.90;;;;;;5030726;28;20470;-67
2022/06/17 05:25:18;;;;;;;36.83;15.70;;;16.40;99.90;;;;;;5049226;28;20460;-66
2022/06/17 05:27:44;;;;;;;33.50;15.60;;;16.60;99.90;;;;;;5056709;28;21008;-66
2022/06/17 05:30:12;;;;;;;34.17;16.47;;;16.80;99.90;;;;;;5056565;28;20463;-67
2022/06/17 05:32:44;;;;;;;37.83;15.47;;;17.10;99.90;;;;;;5041933;28;20464;-67
2022/06/17 05:35:10;;;;;;;40.33;17.30;;;17.40;99.90;;;;;;5030714;28;20492;-67
2022/06/17 05:37:38;;;;;;;34.23;16.70;;;17.80;99.90;;;;;;5028696;28;20981;-67
2022/06/17 05:40:08;;;;;;;41.37;17.57;;;18.10;99.90;;;;;;5030043;28;20504;-66
2022/06/17 05:42:35;;;;;;;38.77;18.40;;;18.30;99.90;;;;;;5029833;28;20460;-67
2022/06/17 05:45:02;;;;;;;25.60;17.70;;;18.50;99.90;;;;;;5030004;28;20559;-67
2022/06/17 05:47:29;;;;;;;25.47;16.93;;;18.60;99.90;;;;;;5029778;28;20467;-67
2022/06/17 05:49:57;;;;;;;27.23;16.67;;;18.70;99.90;;;;;;5029427;28;20467;-67
2022/06/17 05:52:24;;;;;;;27.93;17.20;;;18.60;99.90;;;;;;5029134;28;21332;-67
2022/06/17 05:54:51;;;;;;;29.90;17.80;;;18.60;99.90;;;;;;5028109;28;21021;-66
2022/06/17 05:57:18;;;;;;;31.80;19.00;;;18.60;99.90;;;;;;5027862;28;20493;-67
2022/06/17 05:59:45;;;;;;;37.63;16.93;;;18.60;99.90;;;;;;5029013;28;20475;-67
2022/06/17 06:02:14;;;;;;;33.03;17.77;;;18.60;99.90;;;;;;5047391;28;20478;-67
2022/06/17 06:04:41;;;;;;;34.23;19.13;;;18.60;99.90;;;;;;5060547;28;20477;-67
2022/06/17 06:07:09;;;;;;;28.17;17.63;;;18.70;99.90;;;;;;5053489;28;20456;-67
2022/06/17 06:09:38;;;;;;;26.23;17.53;;;18.70;99.90;;;;;;5047835;28;21007;-67
2022/06/17 06:12:06;;;;;;;23.13;17.00;;;18.70;99.90;;;;;;5028303;28;21205;-67
2022/06/17 06:14:33;;;;;;;37.10;17.97;;;18.90;99.90;;;;;;5027510;28;20490;-67
2022/06/17 06:17:00;;;;;;;26.17;17.50;;;19.10;99.90;;;;;;5027508;28;20965;-68
2022/06/17 06:19:27;;;;;;;19.90;17.13;;;19.20;99.90;;;;;;5038790;28;20491;-67
2022/06/17 06:21:54;;;;;;;21.57;17.17;;;19.40;99.90;;;;;;5055283;28;20465;-66
2022/06/17 06:24:22;;;;;;;25.20;17.60;;;19.80;99.90;;;;;;5052406;28;20464;-66
2022/06/17 06:26:49;;;;;;;25.60;16.83;;;20.30;99.90;;;;;;5058184;28;20463;-68
2022/06/17 06:29:16;;;;;;;18.97;16.27;;;20.50;99.90;;;;;;5032996;28;21908;-67
2022/06/17 06:31:43;;;;;;;23.13;15.97;;;20.90;99.90;;;;;;5026029;28;20481;-67
2022/06/17 06:34:10;;;;;;;18.40;16.33;;;21.40;99.90;;;;;;5027249;28;20475;-68
2022/06/17 06:36:37;;;;;;;28.03;15.37;;;21.80;99.90;;;;;;5026315;28;20847;-67
2022/06/17 06:39:04;;;;;;;17.87;16.13;;;22.10;99.90;;;;;;5026056;28;20460;-68
2022/06/17 06:41:32;;;;;;;17.33;15.50;;;22.30;99.90;;;;;;5025342;28;20464;-67
2022/06/17 06:43:59;;;;;;;17.63;15.73;;;22.40;99.90;;;;;;5026112;28;20745;-68
2022/06/17 06:46:26;;;;;;;17.30;15.60;;;22.70;99.90;;;;;;5026262;28;20459;-67
2022/06/17 06:48:53;;;;;;;22.50;15.63;;;23.10;99.90;;;;;;5026421;28;21366;-68
2022/06/17 06:51:20;;;;;;;21.40;15.70;;;23.00;99.90;;;;;;5027633;28;21016;-68
2022/06/17 06:53:48;;;;;;;19.03;16.00;;;23.30;99.90;;;;;;5026449;28;20938;-67
2022/06/17 06:56:15;;;;;;;18.10;16.30;;;23.40;99.90;;;;;;5026451;28;20918;-67
2022/06/17 06:58:43;;;;;;;16.27;14.87;;;23.30;99.90;;;;;;5025554;28;20459;-68
2022/06/17 07:01:10;;;;;;;18.10;15.43;;;23.30;99.90;;;;;;5027152;28;20973;-67
2022/06/17 07:03:37;;;;;;;19.63;14.97;;;23.40;99.90;;;;;;5024126;28;20467;-68
2022/06/17 07:06:05;;;;;;;17.63;14.73;;;23.40;99.90;;;;;;5027274;28;20464;-68
2022/06/17 07:08:35;;;;;;;16.57;14.80;;;23.60;99.90;;;;;;5027408;28;22766;-68
2022/06/17 07:11:03;;;;;;;18.30;15.30;;;23.50;99.90;;;;;;5027186;28;21079;-67
2022/06/17 07:13:31;;;;;;;16.53;15.00;;;23.50;99.90;;;;;;5027762;28;20460;-68
2022/06/17 07:16:00;;;;;;;19.27;14.93;;;23.70;99.90;;;;;;5028316;28;20491;-67
2022/06/17 07:18:29;;;;;;;16.47;14.57;;;23.90;99.90;;;;;;5033249;28;20776;-67
2022/06/17 07:20:59;;;;;;;16.30;14.93;;;23.80;99.90;;;;;;5034227;28;20463;-67
2022/06/17 07:23:29;;;;;;;17.50;15.50;;;24.10;99.90;;;;;;5033092;28;20470;-67
2022/06/17 07:25:57;;;;;;;17.83;15.23;;;24.40;99.70;;;;;;5034032;28;20555;-68
2022/06/17 07:28:26;;;;;;;17.07;15.23;;;24.50;99.70;;;;;;5033004;28;20827;-67
2022/06/17 07:30:55;;;;;;;16.67;15.17;;;24.90;99.50;;;;;;5033449;28;21011;-67
2022/06/17 07:33:25;;;;;;;16.37;15.07;;;25.30;99.00;;;;;;5033854;28;20474;-68
2022/06/17 07:35:55;;;;;;;16.20;15.00;;;25.70;97.70;;;;;;5032743;28;21016;-68
2022/06/17 07:41:10;;;;;;;18.07;15.33;;;26.00;96.70;;;;;;5034063;28;21341;-67
2022/06/17 07:43:37;;;;;;;16.23;14.83;;;26.10;95.60;;;;;;5034586;28;20596;-68
2022/06/17 07:46:05;;;;;;;16.07;14.87;;;26.30;95.30;;;;;;5033763;28;20571;-67
2022/06/17 07:48:35;;;;;;;17.43;15.63;;;26.00;94.80;;;;;;5033357;28;20583;-67
2022/06/17 07:51:02;;;;;;;23.33;14.57;;;26.10;94.20;;;;;;5032733;28;20615;-68
2022/06/17 07:53:31;;;;;;;18.57;14.83;;;26.00;94.60;;;;;;5032041;28;20455;-67
2022/06/17 07:56:01;;;;;;;17.03;14.97;;;26.10;94.70;;;;;;5031194;28;20587;-68
2022/06/17 07:58:28;;;;;;;15.87;14.77;;;26.40;94.80;;;;;;5032494;28;20456;-68
2022/06/17 08:00:56;;;;;;;16.00;15.00;;;26.70;93.70;;;;;;5051585;28;20966;-68
2022/06/17 08:03:24;;;;;;;16.97;14.83;;;26.50;92.60;;;;;;5056199;28;20483;-68
2022/06/17 08:05:53;;;;;;;15.93;14.53;;;26.40;92.70;;;;;;5056655;28;20954;-67
2022/06/17 08:08:22;;;;;;;15.57;14.20;;;26.40;93.40;;;;;;5043823;28;20477;-68
2022/06/17 08:10:50;;;;;;;16.37;15.20;;;26.50;92.80;;;;;;5032773;28;20462;-68
2022/06/17 08:13:18;;;;;;;16.90;15.60;;;26.80;92.80;;;;;;5031381;28;20476;-68
2022/06/17 08:15:45;;;;;;;15.80;14.60;;;27.00;91.90;;;;;;5033967;28;20736;-67
2022/06/17 08:18:13;;;;;;;16.73;15.33;;;27.00;91.50;;;;;;5033092;28;20467;-67
2022/06/17 08:20:41;;;;;;;16.67;15.10;;;27.20;90.40;;;;;;5033213;28;21149;-67
2022/06/17 08:23:10;;;;;;;16.23;15.17;;;27.30;90.30;;;;;;5032121;28;20901;-68
2022/06/17 08:25:38;;;;;;;16.67;15.47;;;27.50;88.70;;;;;;5033078;28;20944;-68
2022/06/17 08:28:07;;;;;;;17.57;15.90;;;27.90;89.30;;;;;;5028762;28;20464;-68
2022/06/17 08:30:37;;;;;;;16.73;15.53;;;28.10;86.80;;;;;;5029895;28;20478;-68
2022/06/17 08:33:04;;;;;;;16.20;15.20;;;29.00;83.30;;;;;;5028857;28;20710;-68
2022/06/17 08:35:33;;;;;;;17.00;15.70;;;29.00;80.30;;;;;;5029628;28;20491;-68
2022/06/17 08:38:04;;;;;;;17.00;15.80;;;29.50;79.60;;;;;;5029252;28;20495;-68
2022/06/17 08:40:44;;;;;;;16.93;15.53;;;29.00;77.90;;;;;;5029429;28;20463;-68
2022/06/17 08:43:29;;;;;;;16.80;15.73;;;29.20;78.30;;;;;;5029608;28;20663;-68
2022/06/17 08:46:08;;;;;;;17.10;15.80;;;29.40;72.70;;;;;;5030381;28;20474;-68
2022/06/17 08:48:49;;;;;;;17.13;15.90;;;29.30;74.10;;;;;;5029356;28;20467;-68
2022/06/17 08:51:29;;;;;;;16.93;15.63;;;29.30;72.30;;;;;;5029215;28;20878;-69
2022/06/17 08:54:17;;;;;;;16.00;14.93;;;29.80;69.20;;;;;;5029327;28;20467;-68
2022/06/17 08:56:56;;;;;;;15.30;14.40;;;30.10;69.50;;;;;;5028228;28;20916;-68
2022/06/17 08:59:39;;;;;;;15.97;14.63;;;30.50;68.30;;;;;;5032564;28;20478;-68
2022/06/17 09:02:19;;;;;;;16.17;14.97;;;30.20;66.40;;;;;;5018592;28;21119;-68
2022/06/17 09:04:58;;;;;;;17.13;15.57;;;30.00;66.90;;;;;;5018331;28;20456;-68
2022/06/17 09:07:33;;;;;;;16.60;15.10;;;30.50;64.90;;;;;;5025463;28;20549;-69
2022/06/17 09:10:22;;;;;;;17.40;15.90;;;31.00;63.90;;;;;;5022766;28;20564;-68
2022/06/17 09:13:01;;;;;;;16.37;15.23;;;30.90;60.80;;;;;;5025092;28;20877;-69
2022/06/17 09:15:37;;;;;;;16.87;15.60;;;31.30;59.10;;;;;;5034047;28;20532;-68
2022/06/17 09:18:13;;;;;;;18.77;15.77;;;31.50;57.20;;;;;;5020815;28;20466;-68
2022/06/17 09:20:42;;;;;;;16.90;15.73;;;31.90;58.40;;;;;;5024269;28;20459;-68
2022/06/17 09:23:13;;;;;;;16.47;15.47;;;32.10;56.90;;;;;;5023124;28;20652;-69
2022/06/17 09:25:43;;;;;;;16.43;15.33;;;32.30;58.00;;;;;;5024696;28;20500;-69
2022/06/17 09:28:19;;;;;;;16.83;15.63;;;32.60;55.70;;;;;;5023220;28;20463;-68
2022/06/17 09:30:53;;;;;;;17.77;15.40;;;32.70;54.80;;;;;;5024677;28;20475;-68
2022/06/17 09:33:25;;;;;;;15.63;14.63;;;32.10;54.40;;;;;;5020215;28;20853;-68
2022/06/17 09:36:00;;;;;;;17.20;15.60;;;32.10;52.90;;;;;;5023163;28;20456;-68
2022/06/17 09:38:31;;;;;;;16.77;15.40;;;32.30;53.30;;;;;;5022267;28;21355;-68
2022/06/17 09:41:02;;;;;;;17.07;15.77;;;33.00;54.00;;;;;;5023039;28;20452;-68
2022/06/17 09:43:36;;;;;;;16.43;15.10;;;33.70;52.00;;;;;;5022430;28;20494;-68
2022/06/17 09:46:11;;;;;;;17.47;15.97;;;33.30;51.10;;;;;;5023483;28;20495;-69
2022/06/17 09:48:44;;;;;;;16.07;14.80;;;33.50;50.20;;;;;;5022898;28;20474;-69
2022/06/17 09:51:16;;;;;;;16.07;14.80;;;33.40;49.90;;;;;;5023879;28;20475;-69
2022/06/17 09:53:50;;;;;;;22.83;14.90;;;33.80;49.80;;;;;;5041210;28;20467;-69
2022/06/17 09:56:22;;;;;;;15.13;14.30;;;34.00;49.20;;;;;;5043169;28;20464;-69
2022/06/17 09:58:57;;;;;;;15.67;14.40;;;34.70;45.00;;;;;;5023980;28;20816;-69
2022/06/17 10:01:25;;;;;;;15.60;14.63;;;34.50;44.90;;;;;;5020884;28;20462;-68
2022/06/17 10:03:52;;;;;;;15.07;14.10;;;34.10;45.20;;;;;;5023122;28;20837;-68
2022/06/17 10:06:32;;;;;;;16.33;15.10;;;33.40;47.50;;;;;;5013135;28;20506;-69
2022/06/17 10:09:16;;;;;;;15.50;14.60;;;32.90;46.40;;;;;;5024203;28;20502;-69
2022/06/17 10:11:50;;;;;;;15.63;14.60;;;33.00;45.90;;;;;;5023727;28;20819;-69
2022/06/17 10:14:30;;;;;;;15.73;14.40;;;33.10;44.80;;;;;;5023078;28;20471;-69
2022/06/17 10:20:01;;;;;;;14.40;13.70;;;33.90;45.20;;;;;;5023491;28;20575;-69
2022/06/17 10:22:49;;;;;;;15.30;14.20;;;34.00;42.30;;;;;;5022963;28;20768;-68
2022/06/17 10:25:33;;;;;;;15.00;14.10;;;34.50;42.00;;;;;;5023534;28;20980;-69
2022/06/17 10:28:14;;;;;;;16.20;15.20;;;34.10;43.00;;;;;;5024095;28;20467;-69
2022/06/17 10:30:50;;;;;;;15.37;14.37;;;33.90;42.10;;;;;;5023149;28;20463;-69
2022/06/17 10:33:18;;;;;;;14.10;13.30;;;34.00;42.00;;;;;;5022283;28;20519;-69
2022/06/17 10:35:47;;;;;;;15.03;14.23;;;33.70;42.80;;;;;;5021534;28;20475;-69
2022/06/17 10:38:19;;;;;;;14.97;14.13;;;34.20;42.00;;;;;;5022730;28;20697;-69
2022/06/17 10:40:46;;;;;;;15.87;14.43;;;33.60;41.20;;;;;;5023179;28;21426;-69
2022/06/17 10:43:17;;;;;;;15.60;14.50;;;33.70;41.00;;;;;;5022616;28;20474;-69
2022/06/17 10:45:46;;;;;;;14.80;14.00;;;33.30;39.50;;;;;;5023185;28;20619;-69
2022/06/17 10:48:23;;;;;;;14.83;13.73;;;33.30;39.30;;;;;;5021749;28;20456;-69
2022/06/17 10:50:50;;;;;;;16.97;13.93;;;34.50;41.00;;;;;;5020656;28;20484;-69
2022/06/17 10:53:22;;;;;;;15.17;14.17;;;35.40;40.20;;;;;;5021350;28;20463;-68
2022/06/17 10:55:52;;;;;;;15.33;14.57;;;35.80;40.30;;;;;;5021864;28;20475;-69
2022/06/17 10:58:22;;;;;;;15.27;14.33;;;35.90;40.10;;;;;;5021726;28;20837;-69
2022/06/17 11:01:03;;;;;;;15.27;14.57;;;36.50;39.00;;;;;;5022110;28;21096;-69
2022/06/17 11:03:33;;;;;;;14.97;13.93;;;36.20;38.00;;;;;;5020272;28;20472;-68
2022/06/17 11:06:12;;;;;;;14.87;14.07;;;35.80;37.60;;;;;;5021675;28;20506;-69
2022/06/17 11:08:42;;;;;;;15.13;14.33;;;35.90;37.20;;;;;;5022753;28;20483;-69
2022/06/17 11:13:57;;;;;;;16.53;15.03;;;37.20;35.80;;;;;;5022172;28;20574;-69
2022/06/17 11:16:28;;;;;;;15.00;14.20;;;37.50;34.70;;;;;;5022135;28;20504;-69
2022/06/17 11:18:59;;;;;;;15.93;14.60;;;36.90;35.00;;;;;;5022702;28;22022;-69
2022/06/17 11:21:31;;;;;;;15.00;14.20;;;37.20;34.90;;;;;;5022417;28;20476;-69
2022/06/17 11:23:59;;;;;;;14.83;14.00;;;36.80;34.50;;;;;;5021683;28;20462;-69
2022/06/17 11:26:30;;;;;;;15.53;14.40;;;36.20;34.00;;;;;;5021797;28;20491;-69
2022/06/17 11:29:00;;;;;;;15.13;14.33;;;35.80;34.70;;;;;;5022453;28;20923;-69
2022/06/17 11:31:36;;;;;;;14.53;13.83;;;36.00;35.10;;;;;;5021925;28;21685;-70
2022/06/17 11:34:13;;;;;;;15.47;14.53;;;36.80;34.70;;;;;;5021589;28;20466;-70
2022/06/17 11:36:59;;;;;;;15.73;14.47;;;36.90;33.40;;;;;;5022211;28;20950;-69
2022/06/17 11:39:33;;;;;;;14.90;14.00;;;37.00;33.10;;;;;;5022375;28;20470;-69
2022/06/17 11:42:03;;;;;;;14.63;13.80;;;37.30;33.60;;;;;;5022399;28;20464;-69
2022/06/17 11:44:31;;;;;;;14.07;13.33;;;37.50;34.10;;;;;;5021392;28;21073;-69
2022/06/17 11:47:02;;;;;;;14.53;13.73;;;37.20;34.50;;;;;;5020677;28;20529;-69
2022/06/17 11:49:34;;;;;;;15.40;14.30;;;37.70;33.00;;;;;;5021708;28;21060;-69
2022/06/17 11:52:05;;;;;;;14.23;13.53;;;37.90;32.60;;;;;;5022092;28;20472;-70
2022/06/17 11:54:35;;;;;;;14.10;13.40;;;38.30;32.60;;;;;;5022520;28;21092;-69
2022/06/17 11:57:14;;;;;;;14.03;12.90;;;38.60;32.40;;;;;;5023153;28;20828;-68
2022/06/17 11:59:45;;;;;;;13.73;13.03;;;37.80;33.40;;;;;;5023750;28;20525;-69
2022/06/17 12:02:14;;;;;;;14.07;12.73;;;37.60;33.10;;;;;;5021629;28;20628;-69
2022/06/17 12:04:44;;;;;;;14.03;12.70;;;38.40;33.50;;;;;;5026343;28;21028;-70
2022/06/17 12:07:32;;;;;;;12.97;12.00;;;38.50;32.40;;;;;;5026142;28;20499;-69
2022/06/17 12:10:11;;;;;;;14.10;13.30;;;38.60;31.50;;;;;;5026409;28;20491;-70
2022/06/17 12:12:39;;;;;;;12.90;12.30;;;39.00;31.70;;;;;;5025267;28;20869;-69
2022/06/17 12:15:14;;;;;;;12.07;11.47;;;39.70;32.40;;;;;;5027569;28;20729;-70
2022/06/17 12:17:43;;;;;;;12.87;12.27;;;40.10;30.50;;;;;;5025334;28;20804;-70
2022/06/17 12:20:22;;;;;;;15.70;12.07;;;39.10;30.80;;;;;;5026426;28;20822;-70
2022/06/17 12:22:57;;;;;;;12.10;11.50;;;39.50;30.50;;;;;;5024125;28;20632;-69
2022/06/17 12:25:34;;;;;;;12.30;11.80;;;39.20;30.70;;;;;;5025353;28;20597;-69
2022/06/17 12:28:06;;;;;;;12.30;11.47;;;39.10;30.30;;;;;;5025229;28;21029;-69
2022/06/17 12:30:39;;;;;;;12.40;11.80;;;38.70;31.40;;;;;;5023224;28;20469;-70
2022/06/17 12:33:13;;;;;;;12.23;11.63;;;39.50;30.70;;;;;;5024178;28;21056;-69
2022/06/17 12:35:44;;;;;;;12.20;11.40;;;39.60;30.10;;;;;;5025107;28;20467;-70
2022/06/17 12:38:17;;;;;;;11.83;11.23;;;39.50;30.80;;;;;;5021672;28;20932;-69
2022/06/17 12:40:50;;;;;;;12.53;11.97;;;39.40;30.10;;;;;;5023869;28;20463;-70
2022/06/17 12:43:30;;;;;;;12.70;11.93;;;38.00;31.00;;;;;;5024236;28;20464;-69
2022/06/17 12:46:00;;;;;;;12.70;12.10;;;39.10;30.20;;;;;;5023469;28;20557;-69
2022/06/17 12:48:39;;;;;;;11.90;11.50;;;39.70;29.90;;;;;;5022909;28;20465;-70
2022/06/17 12:54:07;;;;;;;13.20;12.40;;;39.50;30.10;;;;;;5023248;28;20563;-69
2022/06/17 12:56:41;;;;;;;12.63;12.03;;;39.30;30.30;;;;;;5023809;28;20467;-70
2022/06/17 12:59:21;;;;;;;12.40;11.73;;;39.60;29.30;;;;;;5023650;28;20995;-70
2022/06/17 13:01:59;;;;;;;12.60;11.93;;;40.00;29.20;;;;;;5024619;28;20468;-69
2022/06/17 13:04:53;;;;;;;11.80;11.30;;;40.60;29.50;;;;;;5023369;28;20471;-70